createdAt,value
2022-12-11T00:00:22.004Z,31.95
2022-12-11T00:02:48.879Z,39.83
2022-12-11T00:05:15.816Z,33.70
2022-12-11T00:07:42.840Z,38.25
2022-12-11T00:10:09.773Z,35.45
2022-12-11T00:12:36.574Z,36.05
2022-12-11T00:15:03.557Z,41.92
2022-12-11T00:17:30.430Z,38.20
2022-12-11T00:19:57.226Z,39.95
2022-12-11T00:22:24.018Z,39.47
2022-12-11T00:24:51.780Z,39.28
2022-12-11T00:27:18.622Z,32.10
2022-12-11T00:29:45.525Z,35.33
2022-12-11T00:32:12.316Z,39.78
2022-12-11T00:34:39.279Z,35.78
2022-12-11T00:37:06.142Z,38.40
2022-12-11T00:39:33.090Z,36.58
2022-12-11T00:41:59.954Z,40.90
2022-12-11T00:44:26.835Z,37.00
2022-12-11T00:46:53.649Z,34.55
2022-12-11T00:49:20.457Z,37.22
2022-12-11T00:51:47.238Z,34.55
2022-12-11T00:54:14.064Z,31.67
2022-12-11T00:56:40.872Z,33.20
2022-12-11T00:59:07.819Z,33.75
2022-12-11T01:01:34.896Z,34.70
2022-12-11T01:04:01.835Z,30.23
2022-12-11T01:06:29.075Z,31.35
2022-12-11T01:09:15.416Z,27.67
2022-12-11T01:11:43.122Z,31.95
2022-12-11T01:14:11.548Z,34.30
2022-12-11T01:16:38.561Z,33.65
2022-12-11T01:19:05.476Z,33.67
2022-12-11T01:21:32.461Z,32.30
2022-12-11T01:23:59.265Z,30.48
2022-12-11T01:26:26.168Z,31.70
2022-12-11T01:28:53.106Z,27.15
2022-12-11T01:31:20.739Z,29.75
2022-12-11T01:33:47.805Z,26.13
2022-12-11T01:36:19.812Z,27.70
2022-12-11T01:38:47.889Z,27.48
2022-12-11T01:41:15.047Z,28.33
2022-12-11T01:44:08.869Z,29.45
2022-12-11T01:46:37.147Z,26.05
2022-12-11T01:49:08.220Z,27.95
2022-12-11T01:51:40.560Z,30.05
2022-12-11T01:54:11.459Z,30.90
2022-12-11T01:56:41.295Z,27.02
2022-12-11T01:59:10.171Z,28.42
2022-12-11T02:02:11.852Z,26.20
2022-12-11T02:04:40.084Z,28.15
2022-12-11T02:07:06.898Z,30.63
2022-12-11T02:09:35.634Z,28.08
2022-12-11T02:12:06.482Z,27.83
2022-12-11T02:14:59.603Z,27.13
2022-12-11T02:17:52.800Z,27.17
2022-12-11T02:20:41.723Z,27.63
2022-12-11T02:23:26.587Z,27.10
2022-12-11T02:26:20.024Z,27.10
2022-12-11T02:28:51.558Z,25.98
2022-12-11T02:31:45.223Z,25.30
2022-12-11T02:34:35.484Z,25.60
2022-12-11T02:37:07.835Z,26.05
2022-12-11T02:39:38.330Z,24.55
2022-12-11T02:42:06.012Z,25.88
2022-12-11T02:44:35.063Z,28.23
2022-12-11T02:47:04.565Z,24.17
2022-12-11T02:49:33.966Z,23.85
2022-12-11T02:52:03.449Z,25.63
2022-12-11T02:54:34.143Z,26.60
2022-12-11T02:57:07.326Z,24.02
2022-12-11T02:59:43.779Z,20.40
2022-12-11T03:02:12.805Z,23.52
2022-12-11T03:04:40.904Z,20.02
2022-12-11T03:07:18.935Z,22.15
2022-12-11T03:09:47.832Z,23.30
2022-12-11T03:12:19.239Z,23.63
2022-12-11T03:14:46.387Z,22.48
2022-12-11T03:17:23.040Z,20.63
2022-12-11T03:20:00.656Z,21.55
2022-12-11T03:22:39.121Z,21.08
2022-12-11T03:25:18.500Z,20.88
2022-12-11T03:27:50.564Z,20.63
2022-12-11T03:30:21.447Z,22.05
2022-12-11T03:32:54.914Z,21.13
2022-12-11T03:35:40.268Z,21.67
2022-12-11T03:38:16.367Z,21.02
2022-12-11T03:40:46.534Z,21.50
2022-12-11T03:43:14.436Z,18.40
2022-12-11T03:45:42.180Z,20.48
2022-12-11T03:48:10.184Z,19.60
2022-12-11T03:50:37.802Z,21.27
2022-12-11T03:53:05.420Z,21.70
2022-12-11T03:55:33.418Z,21.63
2022-12-11T03:58:00.366Z,22.27
2022-12-11T04:00:27.642Z,22.98
2022-12-11T04:03:13.911Z,24.63
2022-12-11T04:05:47.110Z,28.65
2022-12-11T04:08:15.199Z,36.47
2022-12-11T04:10:42.666Z,30.15
2022-12-11T04:13:10.690Z,26.73
2022-12-11T04:15:38.789Z,19.08
2022-12-11T04:18:25.614Z,24.98
2022-12-11T04:21:14.811Z,21.92
2022-12-11T04:24:00.280Z,21.55
2022-12-11T04:26:27.296Z,20.95
2022-12-11T04:28:54.113Z,20.70
2022-12-11T04:31:22.530Z,18.13
2022-12-11T04:33:49.795Z,20.52
2022-12-11T04:36:16.977Z,20.80
2022-12-11T04:38:43.842Z,16.73
2022-12-11T04:41:12.851Z,18.52
2022-12-11T04:43:40.394Z,17.92
2022-12-11T04:46:13.273Z,17.67
2022-12-11T04:48:40.655Z,18.83
2022-12-11T04:51:08.627Z,17.33
2022-12-11T04:53:36.556Z,14.38
2022-12-11T04:56:08.717Z,16.77
2022-12-11T04:58:36.146Z,15.95
2022-12-11T05:01:18.637Z,15.05
2022-12-11T05:03:45.615Z,16.42
2022-12-11T05:06:12.950Z,15.48
2022-12-11T05:08:41.998Z,13.45
2022-12-11T05:11:11.306Z,16.52
2022-12-11T05:13:38.338Z,16.02
2022-12-11T05:16:06.957Z,15.35
2022-12-11T05:18:34.212Z,11.65
2022-12-11T05:21:03.570Z,13.20
2022-12-11T05:23:30.884Z,14.38
2022-12-11T05:26:00.629Z,14.40
2022-12-11T05:28:29.483Z,14.25
2022-12-11T05:30:57.918Z,22.00
2022-12-11T05:33:25.199Z,13.65
2022-12-11T05:35:52.665Z,13.60
2022-12-11T05:38:19.698Z,12.77
2022-12-11T05:41:05.422Z,13.73
2022-12-11T05:43:34.560Z,12.05
2022-12-11T05:46:19.630Z,12.30
2022-12-11T05:48:48.809Z,15.18
2022-12-11T05:51:17.171Z,15.18
2022-12-11T05:53:45.077Z,12.50
2022-12-11T05:56:26.435Z,12.43
2022-12-11T05:58:54.148Z,13.63
2022-12-11T06:01:28.328Z,14.55
2022-12-11T06:03:56.485Z,17.23
2022-12-11T06:06:24.154Z,14.65
2022-12-11T06:08:52.342Z,18.50
2022-12-11T06:11:23.743Z,15.63
2022-12-11T06:13:51.608Z,16.20
2022-12-11T06:16:18.582Z,13.95
2022-12-11T06:18:45.576Z,16.23
2022-12-11T06:21:26.496Z,18.88
2022-12-11T06:23:55.642Z,16.42
2022-12-11T06:26:23.037Z,17.42
2022-12-11T06:28:50.578Z,17.75
2022-12-11T06:31:18.014Z,19.60
2022-12-11T06:33:45.256Z,18.10
2022-12-11T06:36:15.456Z,21.90
2022-12-11T06:38:43.191Z,18.55
2022-12-11T06:41:10.418Z,19.23
2022-12-11T06:43:39.176Z,20.05
2022-12-11T06:46:13.356Z,22.00
2022-12-11T06:48:42.287Z,21.77
2022-12-11T06:51:20.727Z,21.40
2022-12-11T06:53:55.544Z,23.42
2022-12-11T06:56:23.667Z,24.10
2022-12-11T06:58:51.692Z,25.25
2022-12-11T07:01:21.876Z,24.52
2022-12-11T07:03:49.211Z,25.23
2022-12-11T07:06:16.629Z,23.50
2022-12-11T07:08:43.722Z,23.33
2022-12-11T07:11:13.214Z,23.90
2022-12-11T07:13:42.003Z,25.80
2022-12-11T07:16:11.131Z,29.90
2022-12-11T07:18:39.379Z,26.45
2022-12-11T07:21:07.679Z,25.17
2022-12-11T07:23:35.408Z,23.58
2022-12-11T07:26:10.772Z,18.25
2022-12-11T07:28:37.816Z,27.98
2022-12-11T07:31:13.156Z,25.20
2022-12-11T07:33:40.464Z,27.33
2022-12-11T07:36:09.923Z,22.85
2022-12-11T07:38:36.947Z,24.83
2022-12-11T07:41:05.754Z,26.70
2022-12-11T07:43:33.760Z,24.05
2022-12-11T07:46:02.834Z,28.67
2022-12-11T07:48:29.834Z,24.73
2022-12-11T07:50:56.659Z,23.38
2022-12-11T07:53:23.774Z,22.65
2022-12-11T07:55:50.582Z,19.05
2022-12-11T07:58:17.440Z,18.42
2022-12-11T08:00:45.378Z,22.35
2022-12-11T08:03:12.183Z,23.17
2022-12-11T08:05:38.997Z,20.73
2022-12-11T08:08:05.832Z,22.88
2022-12-11T08:10:32.671Z,22.35
2022-12-11T08:12:59.508Z,22.67
2022-12-11T08:15:26.332Z,23.13
2022-12-11T08:17:53.102Z,22.95
2022-12-11T08:20:20.177Z,22.08
2022-12-11T08:22:46.969Z,22.30
2022-12-11T08:25:13.877Z,23.70
2022-12-11T08:27:40.860Z,21.58
2022-12-11T08:30:08.268Z,24.60
2022-12-11T08:32:35.332Z,27.25
2022-12-11T08:35:02.237Z,23.83
2022-12-11T08:37:29.678Z,23.52
2022-12-11T08:39:56.480Z,21.48
2022-12-11T08:42:23.297Z,21.60
2022-12-11T08:44:50.300Z,21.35
2022-12-11T08:47:17.341Z,17.23
2022-12-11T08:49:44.193Z,21.73
2022-12-11T08:52:11.072Z,20.73
2022-12-11T08:54:38.512Z,23.08
2022-12-11T08:57:05.611Z,23.90
2022-12-11T08:59:32.471Z,20.42
2022-12-11T09:01:59.275Z,18.13
2022-12-11T09:04:26.056Z,18.33
2022-12-11T09:06:52.908Z,24.52
2022-12-11T09:09:19.763Z,20.05
2022-12-11T09:11:46.604Z,19.70
2022-12-11T09:14:13.532Z,23.08
2022-12-11T09:16:40.944Z,20.83
2022-12-11T09:19:12.690Z,19.80
2022-12-11T09:21:39.716Z,16.50
2022-12-11T09:24:06.875Z,15.55
2022-12-11T09:26:34.064Z,18.83
2022-12-11T09:29:03.478Z,19.42
2022-12-11T09:31:33.564Z,19.45
2022-12-11T09:34:02.805Z,21.10
2022-12-11T09:36:30.152Z,19.00
2022-12-11T09:39:01.604Z,21.23
2022-12-11T09:41:53.681Z,18.38
2022-12-11T09:44:28.433Z,18.90
2022-12-11T09:46:56.566Z,18.55
2022-12-11T09:49:40.935Z,18.35
2022-12-11T09:52:48.954Z,16.77
2022-12-11T09:55:25.821Z,15.05
2022-12-11T09:58:01.477Z,17.88
2022-12-11T10:00:51.176Z,14.60
2022-12-11T10:03:39.141Z,15.23
2022-12-11T10:06:24.056Z,13.50
2022-12-11T10:09:11.600Z,14.20
2022-12-11T10:11:45.371Z,16.42
2022-12-11T10:14:31.875Z,16.25
2022-12-11T10:17:13.308Z,13.50
2022-12-11T10:19:42.323Z,13.23
2022-12-11T10:22:18.526Z,15.05
2022-12-11T10:25:12.701Z,15.60
2022-12-11T10:27:40.902Z,12.70
2022-12-11T10:30:24.597Z,14.45
2022-12-11T10:33:23.567Z,14.70
2022-12-11T10:35:54.822Z,13.98
2022-12-11T10:38:32.208Z,12.93
2022-12-11T10:41:02.413Z,14.20
2022-12-11T10:43:37.105Z,12.85
2022-12-11T10:46:05.595Z,15.02
2022-12-11T10:48:32.566Z,14.60
2022-12-11T10:51:09.728Z,13.93
2022-12-11T10:53:36.702Z,13.20
2022-12-11T10:56:03.710Z,13.20
2022-12-11T10:58:34.182Z,14.68
2022-12-11T11:01:14.277Z,17.10
2022-12-11T11:04:06.645Z,14.82
2022-12-11T11:06:34.103Z,16.73
2022-12-11T11:09:02.055Z,14.20
2022-12-11T11:11:39.406Z,14.23
2022-12-11T11:14:13.812Z,13.60
2022-12-11T11:16:43.455Z,11.65
2022-12-11T11:19:26.887Z,13.60
2022-12-11T11:21:58.472Z,11.80
2022-12-11T11:24:46.476Z,12.57
2022-12-11T11:27:35.683Z,12.20
2022-12-11T11:30:06.457Z,12.15
2022-12-11T11:32:38.592Z,16.80
2022-12-11T11:35:11.895Z,11.73
2022-12-11T11:37:42.045Z,14.75
2022-12-11T11:40:19.277Z,14.25
2022-12-11T11:43:15.336Z,12.60
2022-12-11T11:46:04.238Z,13.43
2022-12-11T11:48:43.549Z,15.73
2022-12-11T11:51:45.756Z,13.57
2022-12-11T11:54:43.179Z,13.73
2022-12-11T11:57:38.531Z,15.18
2022-12-11T12:00:16.087Z,12.40
2022-12-11T12:02:43.166Z,15.43
2022-12-11T12:05:13.715Z,12.80
2022-12-11T12:07:43.818Z,13.98
2022-12-11T12:10:36.808Z,12.82
2022-12-11T12:13:47.666Z,10.70
2022-12-11T12:16:22.965Z,12.05
2022-12-11T12:19:21.384Z,10.30
2022-12-11T12:21:52.827Z,11.65
2022-12-11T12:24:45.315Z,12.18
2022-12-11T12:27:52.000Z,11.75
2022-12-11T12:30:22.473Z,10.48
2022-12-11T12:33:02.344Z,9.02
2022-12-11T12:35:44.674Z,10.88
2022-12-11T12:38:17.216Z,9.20
2022-12-11T12:41:19.485Z,11.18
2022-12-11T12:43:50.347Z,9.50
2022-12-11T12:46:43.866Z,7.60
2022-12-11T12:49:16.890Z,11.18
2022-12-11T12:51:44.764Z,10.43
2022-12-11T12:54:16.694Z,10.50
2022-12-11T12:56:45.167Z,9.95
2022-12-11T12:59:23.747Z,9.40
2022-12-11T13:01:55.198Z,12.90
2022-12-11T13:04:59.206Z,11.65
2022-12-11T13:07:30.305Z,9.98
2022-12-11T13:10:04.905Z,10.02
2022-12-11T13:12:43.143Z,11.20
2022-12-11T13:15:36.478Z,13.10
2022-12-11T13:18:25.258Z,12.52
2022-12-11T13:20:52.341Z,12.07
2022-12-11T13:23:28.795Z,9.70
2022-12-11T13:25:58.969Z,10.80
2022-12-11T13:28:27.469Z,9.68
2022-12-11T13:31:05.741Z,9.25
2022-12-11T13:33:38.403Z,10.52
2022-12-11T13:36:16.857Z,7.50
2022-12-11T13:38:51.954Z,10.13
2022-12-11T13:41:20.194Z,15.23
2022-12-11T13:43:49.800Z,11.45
2022-12-11T13:46:24.158Z,10.93
2022-12-11T13:48:57.256Z,11.18
2022-12-11T13:51:25.821Z,9.38
2022-12-11T13:54:17.243Z,10.00
2022-12-11T13:57:04.754Z,9.02
2022-12-11T13:59:37.646Z,9.00
2022-12-11T14:02:25.049Z,7.10
2022-12-11T14:05:00.178Z,7.60
2022-12-11T14:07:31.036Z,7.15
2022-12-11T14:10:16.095Z,8.90
2022-12-11T14:12:53.510Z,12.38
2022-12-11T14:15:20.492Z,7.57
2022-12-11T14:17:51.690Z,9.40
2022-12-11T14:20:31.029Z,7.00
2022-12-11T14:23:06.929Z,10.88
2022-12-11T14:25:33.784Z,8.65
2022-12-11T14:28:01.735Z,8.23
2022-12-11T14:30:32.507Z,7.30
2022-12-11T14:33:04.961Z,9.80
2022-12-11T14:35:38.856Z,9.48
2022-12-11T14:38:26.125Z,7.97
2022-12-11T14:40:58.030Z,9.77
2022-12-11T14:43:35.619Z,9.60
2022-12-11T14:46:08.944Z,9.90
2022-12-11T14:49:00.838Z,9.82
2022-12-11T14:51:33.384Z,11.20
2022-12-11T14:54:00.650Z,20.35
2022-12-11T14:56:30.123Z,11.30
2022-12-11T14:59:06.997Z,12.02
2022-12-11T15:01:36.192Z,8.25
2022-12-11T15:04:14.902Z,9.65
2022-12-11T15:06:47.473Z,12.90
2022-12-11T15:09:36.345Z,10.90
2022-12-11T15:12:19.817Z,11.05
2022-12-11T15:14:56.740Z,12.20
2022-12-11T15:17:25.539Z,10.43
2022-12-11T15:20:02.074Z,11.25
2022-12-11T15:22:31.508Z,11.70
2022-12-11T15:24:59.797Z,12.55
2022-12-11T15:27:39.863Z,13.90
2022-12-11T15:30:18.881Z,13.90
2022-12-11T15:32:46.220Z,13.10
2022-12-11T15:35:27.216Z,11.43
2022-12-11T15:37:58.486Z,12.90
2022-12-11T15:40:25.779Z,12.10
2022-12-11T15:42:54.864Z,11.93
2022-12-11T15:45:24.712Z,14.20
2022-12-11T15:47:52.669Z,12.75
2022-12-11T15:50:27.054Z,10.32
2022-12-11T15:52:55.166Z,14.32
2022-12-11T15:55:23.896Z,15.85
2022-12-11T15:57:58.270Z,12.55
2022-12-11T16:00:28.067Z,14.07
2022-12-11T16:02:55.688Z,12.00
2022-12-11T16:05:23.110Z,14.65
2022-12-11T16:07:52.343Z,13.23
2022-12-11T16:10:20.320Z,14.23
2022-12-11T16:12:47.454Z,13.10
2022-12-11T16:15:21.399Z,15.07
2022-12-11T16:17:58.850Z,14.85
2022-12-11T16:20:25.646Z,13.48
2022-12-11T16:22:52.640Z,15.27
2022-12-11T16:25:19.406Z,14.75
2022-12-11T16:27:46.194Z,16.52
2022-12-11T16:30:13.911Z,17.13
2022-12-11T16:32:40.736Z,19.95
2022-12-11T16:35:07.806Z,13.57
2022-12-11T16:37:34.728Z,15.73
2022-12-11T16:40:01.528Z,13.50
2022-12-11T16:42:28.343Z,15.80
2022-12-11T16:44:57.631Z,14.48
2022-12-11T16:47:24.410Z,17.50
2022-12-11T16:49:51.218Z,18.80
2022-12-11T16:52:22.152Z,15.25
2022-12-11T16:54:49.278Z,16.42
2022-12-11T16:57:16.566Z,14.23
2022-12-11T16:59:43.520Z,16.35
2022-12-11T17:02:11.590Z,14.88
2022-12-11T17:04:39.272Z,16.77
2022-12-11T17:07:06.444Z,14.65
2022-12-11T17:09:33.854Z,16.80
2022-12-11T17:12:01.270Z,13.63
2022-12-11T17:14:28.597Z,14.35
2022-12-11T17:16:55.674Z,15.25
2022-12-11T17:19:22.655Z,16.85
2022-12-11T17:21:51.850Z,16.30
2022-12-11T17:24:18.738Z,14.68
2022-12-11T17:26:45.858Z,14.90
2022-12-11T17:29:13.203Z,16.05
2022-12-11T17:31:40.229Z,13.82
2022-12-11T17:34:07.368Z,13.93
2022-12-11T17:36:34.712Z,17.33
2022-12-11T17:39:01.635Z,17.15
2022-12-11T17:41:28.433Z,17.08
2022-12-11T17:43:55.800Z,16.35
2022-12-11T17:46:22.928Z,17.58
2022-12-11T17:48:49.883Z,16.60
2022-12-11T17:51:21.988Z,20.33
2022-12-11T17:53:48.952Z,16.02
2022-12-11T17:56:16.474Z,17.40
2022-12-11T17:58:43.438Z,14.38
2022-12-11T18:01:13.162Z,15.30
2022-12-11T18:03:40.372Z,18.88
2022-12-11T18:06:13.611Z,12.68
2022-12-11T18:08:41.589Z,15.73
2022-12-11T18:11:11.257Z,16.92
2022-12-11T18:13:38.682Z,14.50
2022-12-11T18:16:07.877Z,17.15
2022-12-11T18:18:35.216Z,20.90
2022-12-11T18:21:02.444Z,18.13
2022-12-11T18:23:29.663Z,17.80
2022-12-11T18:25:56.491Z,16.23
2022-12-11T18:28:23.424Z,17.77
2022-12-11T18:30:50.331Z,15.25
2022-12-11T18:33:18.022Z,16.00
2022-12-11T18:35:44.794Z,18.05
2022-12-11T18:38:12.312Z,15.35
2022-12-11T18:40:39.224Z,17.73
2022-12-11T18:43:06.062Z,22.15
2022-12-11T18:45:32.898Z,17.42
2022-12-11T18:47:59.728Z,16.20
2022-12-11T18:50:26.730Z,15.75
2022-12-11T18:52:57.058Z,15.57
2022-12-11T18:55:24.131Z,20.70
2022-12-11T18:57:50.982Z,19.65
2022-12-11T19:00:18.646Z,20.80
2022-12-11T19:02:45.913Z,18.85
2022-12-11T19:05:13.472Z,18.77
2022-12-11T19:07:40.568Z,22.48
2022-12-11T19:10:08.055Z,18.40
2022-12-11T19:12:35.920Z,20.52
2022-12-11T19:15:02.808Z,20.52
2022-12-11T19:17:29.628Z,18.55
2022-12-11T19:19:56.485Z,16.00
2022-12-11T19:22:23.317Z,15.48
2022-12-11T19:24:50.251Z,13.85
2022-12-11T19:27:17.068Z,15.13
2022-12-11T19:29:43.935Z,17.75
2022-12-11T19:32:10.755Z,13.73
2022-12-11T19:34:38.601Z,12.38
2022-12-11T19:37:05.826Z,12.40
2022-12-11T19:39:32.757Z,10.23
2022-12-11T19:41:59.960Z,13.20
2022-12-11T19:44:27.046Z,12.05
2022-12-11T19:46:53.937Z,9.25
2022-12-11T19:49:21.535Z,11.48
2022-12-11T19:51:48.375Z,10.50
2022-12-11T19:54:17.084Z,11.18
2022-12-11T19:56:44.951Z,11.27
2022-12-11T19:59:16.586Z,11.50
2022-12-11T20:01:46.713Z,10.75
2022-12-11T20:04:16.458Z,12.13
2022-12-11T20:06:45.222Z,12.00
2022-12-11T20:09:12.963Z,13.10
2022-12-11T20:11:41.833Z,13.30
2022-12-11T20:14:09.327Z,16.30
2022-12-11T20:19:23.313Z,16.42
2022-12-11T20:21:50.082Z,17.13
2022-12-11T20:24:16.892Z,18.58
2022-12-11T20:26:43.874Z,19.92
2022-12-11T20:29:12.748Z,20.65
2022-12-11T20:31:39.666Z,20.20
2022-12-11T20:34:07.339Z,16.95
2022-12-11T20:36:35.239Z,19.23
2022-12-11T20:39:02.174Z,18.83
2022-12-11T20:41:29.454Z,17.58
2022-12-11T20:43:56.363Z,19.85
2022-12-11T20:46:26.068Z,17.30
2022-12-11T20:48:54.020Z,21.48
2022-12-11T20:51:26.001Z,17.95
2022-12-11T20:54:01.205Z,19.17
2022-12-11T20:56:30.841Z,19.13
2022-12-11T20:58:58.921Z,18.15
2022-12-11T21:01:29.489Z,19.52
2022-12-11T21:03:56.655Z,17.17
2022-12-11T21:06:31.976Z,16.83
2022-12-11T21:09:06.867Z,18.70
2022-12-11T21:11:34.284Z,16.88
2022-12-11T21:14:01.210Z,23.27
2022-12-11T21:16:28.603Z,17.08
2022-12-11T21:18:58.984Z,24.00
2022-12-11T21:21:26.351Z,24.25
2022-12-11T21:23:53.253Z,20.70
2022-12-11T21:26:20.469Z,20.63
2022-12-11T21:28:47.272Z,18.73
2022-12-11T21:31:17.982Z,17.67
2022-12-11T21:33:45.386Z,22.95
2022-12-11T21:36:14.188Z,21.88
2022-12-11T21:38:43.292Z,20.95
2022-12-11T21:41:13.730Z,20.38
2022-12-11T21:44:00.431Z,19.77
2022-12-11T21:46:29.331Z,20.98
2022-12-11T21:48:56.143Z,18.40
2022-12-11T21:51:32.566Z,18.40
2022-12-11T21:54:05.204Z,19.02
2022-12-11T21:56:33.180Z,19.60
2022-12-11T21:59:01.596Z,16.80
2022-12-11T22:01:37.168Z,17.83
2022-12-11T22:04:05.204Z,19.35
2022-12-11T22:06:32.235Z,21.52
2022-12-11T22:08:59.022Z,22.45
2022-12-11T22:11:29.577Z,20.58
2022-12-11T22:13:56.978Z,21.17
2022-12-11T22:16:24.157Z,16.48
2022-12-11T22:18:51.046Z,18.77
2022-12-11T22:21:18.080Z,21.20
2022-12-11T22:23:45.293Z,19.33
2022-12-11T22:26:18.138Z,17.98
2022-12-11T22:28:44.940Z,22.35
2022-12-11T22:31:13.301Z,21.90
2022-12-11T22:33:40.899Z,18.83
2022-12-11T22:36:08.051Z,26.55
2022-12-11T22:38:35.224Z,16.33
2022-12-11T22:41:08.752Z,19.70
2022-12-11T22:43:35.665Z,19.05
2022-12-11T22:46:02.504Z,18.42
2022-12-11T22:48:29.404Z,19.67
2022-12-11T22:50:56.183Z,25.05
2022-12-11T22:53:22.970Z,34.20
2022-12-11T22:55:49.749Z,20.25
2022-12-11T22:58:21.591Z,20.13
2022-12-11T23:00:48.799Z,22.75
2022-12-11T23:03:15.733Z,19.40
2022-12-11T23:05:43.309Z,15.63
2022-12-11T23:08:10.228Z,20.80
2022-12-11T23:10:40.509Z,18.52
2022-12-11T23:13:07.660Z,23.10
2022-12-11T23:15:34.584Z,23.35
2022-12-11T23:18:01.433Z,22.25
2022-12-11T23:20:28.465Z,21.75
2022-12-11T23:22:55.547Z,20.40
2022-12-11T23:25:22.483Z,20.10
2022-12-11T23:27:49.440Z,21.25
2022-12-11T23:30:16.217Z,19.73
2022-12-11T23:32:43.023Z,17.17
2022-12-11T23:35:10.279Z,19.73
2022-12-11T23:37:37.379Z,19.58
2022-12-11T23:40:04.975Z,20.63
2022-12-11T23:42:31.756Z,19.10
2022-12-11T23:44:58.637Z,18.30
2022-12-11T23:47:25.538Z,19.48
2022-12-11T23:49:52.391Z,19.55
2022-12-11T23:52:19.215Z,18.05
2022-12-11T23:54:46.025Z,17.30
2022-12-11T23:57:12.808Z,25.77
2022-12-11T23:59:39.615Z,20.30
